Time;durP1;ratioP1;P1;durP2;ratioP2;P2;SDS_P1;SDS_P2;PMS_P1;PMS_P2;Temp;Humidity;BMP_temperature;BMP_pressure;BME280_temperature;BME280_humidity;BME280_pressure;Samples;Min_cycle;Max_cycle;Signal;HPM_P1;HPM_P2
2020/12/11 00:00:31;;;;;;;48.13;24.13;;;1.50;91.50;;;;;;5021445;28;20050;-51
2020/12/11 00:02:57;;;;;;;46.47;23.17;;;1.50;91.10;;;;;;5014770;28;20053;-50
2020/12/11 00:05:43;;;;;;;45.00;22.88;;;1.60;91.20;;;;;;5011255;28;20053;-53
2020/12/11 00:08:09;;;;;;;49.83;24.23;;;1.50;91.20;;;;;;5024572;28;20042;-51
2020/12/11 00:10:55;;;;;;;46.13;23.50;;;1.50;91.20;;;;;;5002645;28;20065;-52
2020/12/11 00:13:21;;;;;;;47.20;23.67;;;1.50;91.30;;;;;;5021880;28;20552;-51
2020/12/11 00:16:07;;;;;;;43.58;22.63;;;1.50;91.20;;;;;;4994543;28;20136;-53
2020/12/11 00:18:33;;;;;;;43.28;23.02;;;1.50;91.00;;;;;;5014401;28;20586;-52
2020/12/11 00:21:00;;;;;;;46.28;24.13;;;1.50;91.20;;;;;;5019071;28;20049;-54
2020/12/11 00:23:47;;;;;;;44.92;23.35;;;1.40;91.10;;;;;;5001529;28;20487;-51
2020/12/11 00:26:16;;;;;;;46.00;21.88;;;1.50;91.10;;;;;;4993866;28;20056;-55
2020/12/11 00:29:04;;;;;;;43.95;21.65;;;1.40;91.00;;;;;;4989945;28;20542;-55
2020/12/11 00:31:31;;;;;;;41.30;22.42;;;1.40;91.10;;;;;;5035004;28;20143;-55
2020/12/11 00:33:57;;;;;;;43.33;22.50;;;1.40;91.00;;;;;;5028502;28;20045;-53
2020/12/11 00:36:24;;;;;;;41.83;21.65;;;1.40;90.80;;;;;;5016440;28;20063;-55
2020/12/11 00:38:51;;;;;;;41.08;21.45;;;1.30;91.10;;;;;;5016481;28;20042;-53
2020/12/11 00:41:17;;;;;;;41.55;22.55;;;1.30;91.00;;;;;;5027619;28;20045;-55
2020/12/11 00:43:44;;;;;;;43.72;23.35;;;1.30;90.90;;;;;;5028015;28;20053;-52
2020/12/11 00:46:09;;;;;;;43.00;22.85;;;1.30;91.20;;;;;;5023221;28;20465;-51
2020/12/11 00:48:36;;;;;;;47.90;23.48;;;1.30;91.00;;;;;;5034062;28;20056;-50
2020/12/11 00:51:25;;;;;;;43.38;22.80;;;1.30;91.00;;;;;;5013862;28;20046;-51
2020/12/11 00:54:11;;;;;;;40.42;22.02;;;1.20;91.10;;;;;;5022151;28;20046;-55
2020/12/11 00:56:40;;;;;;;36.10;21.40;;;1.20;91.10;;;;;;5024038;28;20041;-54
2020/12/11 00:59:05;;;;;;;40.05;22.30;;;1.20;91.00;;;;;;5020533;28;20038;-51
2020/12/11 01:01:36;;;;;;;42.95;23.10;;;1.20;91.10;;;;;;5025735;28;20033;-51
2020/12/11 01:04:07;;;;;;;45.28;22.65;;;1.20;91.10;;;;;;4998637;28;20046;-56
2020/12/11 01:06:33;;;;;;;44.20;22.95;;;1.20;91.00;;;;;;5018991;28;20034;-54
2020/12/11 01:09:00;;;;;;;37.45;22.00;;;1.20;91.10;;;;;;5014618;28;20073;-54
2020/12/11 01:11:26;;;;;;;40.78;21.35;;;1.30;90.80;;;;;;5010950;28;20076;-51
2020/12/11 01:13:51;;;;;;;39.65;22.75;;;1.20;90.90;;;;;;5025091;28;20073;-53
2020/12/11 01:16:37;;;;;;;39.88;21.98;;;1.10;91.10;;;;;;5004785;28;20465;-54
2020/12/11 01:19:23;;;;;;;37.92;21.20;;;1.20;91.10;;;;;;5017280;28;20139;-54
2020/12/11 01:21:50;;;;;;;37.17;21.70;;;1.20;91.00;;;;;;5003374;28;20259;-51
2020/12/11 01:24:16;;;;;;;37.03;21.35;;;1.20;91.00;;;;;;5030652;28;20073;-53
2020/12/11 01:26:46;;;;;;;37.88;21.35;;;1.20;91.10;;;;;;5024596;28;20045;-54
2020/12/11 01:29:13;;;;;;;38.70;21.20;;;1.20;90.90;;;;;;5019685;28;20046;-53
2020/12/11 01:31:59;;;;;;;38.30;21.48;;;1.20;90.90;;;;;;5003286;28;20044;-54
2020/12/11 01:34:26;;;;;;;37.95;21.60;;;1.20;91.00;;;;;;5018655;28;20038;-54
2020/12/11 01:37:12;;;;;;;38.10;21.25;;;1.30;90.70;;;;;;4993184;28;20115;-55
2020/12/11 01:39:38;;;;;;;40.20;21.70;;;1.30;90.80;;;;;;5021057;28;20053;-52
2020/12/11 01:42:10;;;;;;;37.00;20.60;;;1.30;90.90;;;;;;5022114;28;20116;-54
2020/12/11 01:44:57;;;;;;;36.92;20.85;;;1.30;90.80;;;;;;4999342;28;20114;-51
2020/12/11 01:47:24;;;;;;;40.40;22.10;;;1.30;90.60;;;;;;5009187;28;20041;-52
2020/12/11 01:50:18;;;;;;;39.38;20.67;;;1.30;90.80;;;;;;5006011;28;20049;-54
2020/12/11 01:52:50;;;;;;;38.00;21.73;;;1.30;91.10;;;;;;5016482;28;20042;-54
2020/12/11 01:55:17;;;;;;;39.57;22.27;;;1.30;90.70;;;;;;5024068;28;20041;-53
2020/12/11 01:57:56;;;;;;;37.65;21.52;;;1.30;90.90;;;;;;5014088;28;20464;-54
2020/12/11 02:00:23;;;;;;;40.03;21.10;;;1.30;90.80;;;;;;5015479;28;20108;-53
2020/12/11 02:03:03;;;;;;;41.85;22.17;;;1.40;90.70;;;;;;5024168;28;20038;-50
2020/12/11 02:05:49;;;;;;;38.80;21.85;;;1.30;90.80;;;;;;5006033;28;20439;-53
2020/12/11 02:08:16;;;;;;;38.75;21.20;;;1.30;91.20;;;;;;5011793;28;20074;-53
2020/12/11 02:10:46;;;;;;;36.75;21.40;;;1.30;91.00;;;;;;5014653;28;20126;-51
2020/12/11 02:13:12;;;;;;;40.78;22.88;;;1.40;91.00;;;;;;5013249;28;511991;-54
2020/12/11 02:15:57;;;;;;;43.40;22.10;;;1.30;90.90;;;;;;5007908;28;20050;-53
2020/12/11 02:18:25;;;;;;;43.08;22.95;;;1.30;91.00;;;;;;5024808;28;20049;-54
2020/12/11 02:20:54;;;;;;;38.03;22.02;;;1.30;91.00;;;;;;5018081;28;20033;-53
2020/12/11 02:23:20;;;;;;;36.55;21.05;;;1.30;91.20;;;;;;5032502;28;20273;-52
2020/12/11 02:25:46;;;;;;;39.00;21.73;;;1.30;91.30;;;;;;5031712;28;20513;-53
2020/12/11 02:28:33;;;;;;;39.65;22.10;;;1.40;91.00;;;;;;5016746;28;20038;-51
2020/12/11 02:30:59;;;;;;;41.30;21.60;;;1.40;90.80;;;;;;5031381;28;20029;-53
2020/12/11 02:33:25;;;;;;;39.17;21.88;;;1.40;90.80;;;;;;5029217;28;20049;-55
2020/12/11 02:36:11;;;;;;;41.10;22.48;;;1.40;90.90;;;;;;5001425;28;20049;-52
2020/12/11 02:38:37;;;;;;;35.92;21.15;;;1.40;90.80;;;;;;5023332;28;20133;-53
2020/12/11 02:41:03;;;;;;;38.50;21.52;;;1.40;90.80;;;;;;5013996;28;20117;-54
2020/12/11 02:43:49;;;;;;;41.33;22.02;;;1.40;90.80;;;;;;5007081;28;20046;-55
2020/12/11 02:46:37;;;;;;;38.63;21.60;;;1.40;90.80;;;;;;5002440;28;20132;-53
2020/12/11 02:49:03;;;;;;;35.65;20.20;;;1.40;90.70;;;;;;5016706;28;20122;-52
2020/12/11 02:51:49;;;;;;;40.15;21.70;;;1.50;90.40;;;;;;4986079;28;20046;-55
2020/12/11 02:54:15;;;;;;;38.05;20.83;;;1.40;90.60;;;;;;5014498;28;20399;-54
2020/12/11 02:56:41;;;;;;;38.47;21.90;;;1.30;90.60;;;;;;5021393;28;20046;-52
2020/12/11 02:59:07;;;;;;;39.05;22.30;;;1.30;90.60;;;;;;5017345;28;20121;-53
2020/12/11 03:01:33;;;;;;;37.63;21.55;;;1.30;90.80;;;;;;5028352;28;20187;-53
2020/12/11 03:03:59;;;;;;;38.35;21.05;;;1.20;90.80;;;;;;5016542;28;20045;-52
2020/12/11 03:06:44;;;;;;;38.22;22.27;;;1.20;90.70;;;;;;5004603;28;20042;-57
2020/12/11 03:09:30;;;;;;;41.15;21.38;;;1.30;90.50;;;;;;5011253;28;20053;-51
2020/12/11 03:11:55;;;;;;;39.60;21.98;;;1.20;90.70;;;;;;5020519;28;20417;-53
2020/12/11 03:14:22;;;;;;;41.88;22.13;;;1.20;90.80;;;;;;5028371;28;20038;-52
2020/12/11 03:16:48;;;;;;;40.50;20.98;;;1.20;90.70;;;;;;5013159;28;20057;-51
2020/12/11 03:19:14;;;;;;;41.08;23.15;;;1.20;90.70;;;;;;5025378;28;20118;-50
2020/12/11 03:21:40;;;;;;;37.20;22.10;;;1.10;90.60;;;;;;5025765;28;20132;-51
2020/12/11 03:24:26;;;;;;;39.10;23.25;;;1.10;90.70;;;;;;4997703;28;20109;-54
2020/12/11 03:26:51;;;;;;;39.80;21.98;;;1.20;90.90;;;;;;5019865;28;20121;-50
2020/12/11 03:29:37;;;;;;;41.08;23.83;;;1.10;91.00;;;;;;5004177;28;20457;-50
2020/12/11 03:32:04;;;;;;;41.05;22.95;;;1.10;90.80;;;;;;5009086;28;20161;-56
2020/12/11 03:34:32;;;;;;;41.47;22.95;;;1.00;90.80;;;;;;5017628;28;20037;-50
2020/12/11 03:36:58;;;;;;;42.22;22.20;;;1.10;90.70;;;;;;5027914;28;20042;-54
2020/12/11 03:39:44;;;;;;;39.75;22.80;;;1.00;90.80;;;;;;5006842;28;20054;-51
2020/12/11 03:42:10;;;;;;;42.05;24.20;;;0.90;91.00;;;;;;5033148;28;20044;-54
2020/12/11 03:44:36;;;;;;;41.90;23.60;;;1.00;91.00;;;;;;5014450;28;20038;-50
2020/12/11 03:47:22;;;;;;;41.08;23.75;;;1.00;90.80;;;;;;5003974;28;20061;-56
2020/12/11 03:50:08;;;;;;;42.13;24.70;;;1.10;90.70;;;;;;5013765;28;20045;-52
2020/12/11 03:52:33;;;;;;;41.40;23.50;;;1.00;90.80;;;;;;5027930;28;20474;-50
2020/12/11 03:54:59;;;;;;;44.20;24.35;;;1.00;90.90;;;;;;5018588;28;20517;-52
2020/12/11 03:57:25;;;;;;;44.25;24.13;;;1.00;90.80;;;;;;5020975;28;20379;-53
2020/12/11 03:59:51;;;;;;;42.75;24.10;;;1.00;90.70;;;;;;5013413;28;20422;-51
2020/12/11 04:02:17;;;;;;;41.88;23.75;;;1.00;90.80;;;;;;5015626;28;20506;-51
2020/12/11 04:04:43;;;;;;;41.03;22.85;;;1.00;91.00;;;;;;5024771;28;20033;-50
2020/12/11 04:07:09;;;;;;;42.58;23.15;;;1.00;90.80;;;;;;5013591;28;20100;-50
2020/12/11 04:09:35;;;;;;;41.78;23.88;;;1.00;90.90;;;;;;5025188;28;20065;-51
2020/12/11 04:12:00;;;;;;;45.50;24.98;;;1.00;90.90;;;;;;5026536;28;20045;-52
2020/12/11 04:14:46;;;;;;;43.22;24.58;;;1.00;90.80;;;;;;4999073;28;20053;-50
2020/12/11 04:17:12;;;;;;;45.17;24.40;;;0.90;90.90;;;;;;5023961;28;20042;-53
2020/12/11 04:19:58;;;;;;;46.70;23.88;;;0.90;91.20;;;;;;4999289;28;20494;-51
2020/12/11 04:22:43;;;;;;;45.28;23.73;;;0.90;91.00;;;;;;4999975;28;20084;-54
2020/12/11 04:25:29;;;;;;;43.67;24.25;;;0.90;90.80;;;;;;5014934;28;20145;-50
2020/12/11 04:27:54;;;;;;;42.05;22.60;;;0.90;90.80;;;;;;5013218;28;20132;-54
2020/12/11 04:30:40;;;;;;;45.63;24.10;;;1.00;90.80;;;;;;4999659;28;20057;-53
2020/12/11 04:33:06;;;;;;;46.28;24.25;;;1.00;90.70;;;;;;5010163;28;20487;-53
2020/12/11 04:35:33;;;;;;;44.60;23.73;;;0.90;91.00;;;;;;5008845;28;20550;-54
2020/12/11 04:37:59;;;;;;;44.47;25.13;;;0.90;91.10;;;;;;5002913;28;20034;-53
2020/12/11 04:40:25;;;;;;;43.25;24.00;;;0.90;90.80;;;;;;5017095;28;20501;-52
2020/12/11 04:42:52;;;;;;;45.53;24.13;;;0.90;90.80;;;;;;4999626;28;20041;-51
2020/12/11 04:45:18;;;;;;;42.20;23.73;;;1.00;90.70;;;;;;5019268;28;20185;-51
2020/12/11 04:47:46;;;;;;;45.35;24.58;;;1.00;90.70;;;;;;5023260;28;20060;-51
2020/12/11 04:50:16;;;;;;;42.10;23.30;;;1.00;90.80;;;;;;5021074;28;20420;-50
2020/12/11 04:53:03;;;;;;;44.85;24.73;;;1.00;90.90;;;;;;5006296;28;20046;-53
2020/12/11 04:55:34;;;;;;;46.05;24.27;;;1.00;90.70;;;;;;5027938;28;20528;-53
2020/12/11 04:58:05;;;;;;;43.80;24.25;;;1.00;90.80;;;;;;5028227;28;20049;-50
2020/12/11 05:00:31;;;;;;;44.03;24.42;;;1.00;91.00;;;;;;5010726;28;20034;-54
2020/12/11 05:03:17;;;;;;;48.08;24.00;;;1.00;91.00;;;;;;5007167;28;20052;-52
2020/12/11 05:05:44;;;;;;;48.90;25.60;;;0.90;91.20;;;;;;5012501;28;20133;-53
2020/12/11 05:08:20;;;;;;;43.25;23.15;;;1.00;91.10;;;;;;5018222;28;20414;-52
2020/12/11 05:10:46;;;;;;;45.05;24.60;;;1.00;91.20;;;;;;5024865;28;20069;-53
2020/12/11 05:13:24;;;;;;;46.65;25.65;;;1.00;91.20;;;;;;5016534;28;20054;-54
2020/12/11 05:16:15;;;;;;;45.00;24.02;;;1.00;91.20;;;;;;5011904;28;20136;-53
2020/12/11 05:18:41;;;;;;;44.97;24.83;;;0.90;91.40;;;;;;5033562;28;20041;-51
2020/12/11 05:21:17;;;;;;;47.42;24.80;;;1.00;91.30;;;;;;5014511;28;20069;-53
2020/12/11 05:24:01;;;;;;;44.80;24.60;;;1.00;91.20;;;;;;5017584;28;20116;-55
2020/12/11 05:26:47;;;;;;;44.35;23.50;;;1.00;91.30;;;;;;4997246;28;20060;-54
2020/12/11 05:29:13;;;;;;;42.28;23.70;;;1.00;91.30;;;;;;5027304;28;20041;-54
2020/12/11 05:31:45;;;;;;;43.97;23.98;;;1.10;91.30;;;;;;5000176;28;20053;-54
2020/12/11 05:34:12;;;;;;;44.30;23.38;;;1.10;91.20;;;;;;5020497;28;20621;-53
2020/12/11 05:36:58;;;;;;;42.72;23.63;;;1.10;90.90;;;;;;4987662;28;20097;-54
2020/12/11 05:39:31;;;;;;;45.25;23.88;;;1.20;90.80;;;;;;5020654;28;20383;-53
2020/12/11 05:41:59;;;;;;;44.88;24.25;;;1.20;90.70;;;;;;5027482;28;20384;-54
2020/12/11 05:44:35;;;;;;;46.20;24.98;;;1.20;90.80;;;;;;5018293;28;20585;-54
2020/12/11 05:47:18;;;;;;;45.17;25.08;;;1.20;90.70;;;;;;5002454;28;20498;-52
2020/12/11 05:50:19;;;;;;;49.92;24.95;;;1.20;90.60;;;;;;5017973;28;20045;-53
2020/12/11 05:53:05;;;;;;;47.78;24.58;;;1.20;90.70;;;;;;5005397;28;20232;-55
2020/12/11 05:55:31;;;;;;;47.05;26.80;;;1.20;90.80;;;;;;5030765;28;20539;-55
2020/12/11 05:57:58;;;;;;;44.70;24.55;;;1.20;91.00;;;;;;5003608;28;20506;-54
2020/12/11 06:00:46;;;;;;;42.78;24.10;;;1.20;90.60;;;;;;5013751;28;20128;-55
2020/12/11 06:03:12;;;;;;;48.88;25.98;;;1.30;90.80;;;;;;5026935;28;20322;-55
2020/12/11 06:05:39;;;;;;;49.10;25.60;;;1.20;90.90;;;;;;5025410;28;20482;-54
2020/12/11 06:08:12;;;;;;;51.28;26.50;;;1.30;90.90;;;;;;5017245;28;20045;-55
2020/12/11 06:11:06;;;;;;;45.90;24.65;;;1.30;90.70;;;;;;5007446;28;20112;-55
2020/12/11 06:13:47;;;;;;;44.70;24.73;;;1.20;90.90;;;;;;5018285;28;20044;-54
2020/12/11 06:16:15;;;;;;;46.80;25.05;;;1.30;90.80;;;;;;5005059;28;20510;-54
2020/12/11 06:18:43;;;;;;;47.90;24.85;;;1.30;90.60;;;;;;5017103;28;20060;-53
2020/12/11 06:21:31;;;;;;;48.83;25.98;;;1.30;90.80;;;;;;4992085;28;20083;-55
2020/12/11 06:24:27;;;;;;;49.10;25.98;;;1.30;91.00;;;;;;5002811;28;20073;-54
2020/12/11 06:27:12;;;;;;;47.63;26.42;;;1.20;91.10;;;;;;4998314;28;20136;-55
2020/12/11 06:29:58;;;;;;;47.75;26.02;;;1.30;91.00;;;;;;5006893;28;20060;-54
2020/12/11 06:32:46;;;;;;;47.53;25.42;;;1.40;90.80;;;;;;4998845;28;20044;-55
2020/12/11 06:35:13;;;;;;;49.05;25.02;;;1.30;90.90;;;;;;5017442;28;20042;-55
2020/12/11 06:37:40;;;;;;;47.35;25.42;;;1.30;91.00;;;;;;5016504;28;20253;-55
2020/12/11 06:40:06;;;;;;;47.42;24.95;;;1.40;90.70;;;;;;5021700;28;20069;-55
2020/12/11 06:42:53;;;;;;;44.05;24.35;;;1.30;90.70;;;;;;5003172;28;20417;-55
2020/12/11 06:45:28;;;;;;;46.22;24.67;;;1.40;90.60;;;;;;5026775;28;20042;-55
2020/12/11 06:48:14;;;;;;;45.38;24.27;;;1.40;90.70;;;;;;5010965;28;20046;-53
2020/12/11 06:51:03;;;;;;;46.30;24.55;;;1.40;90.70;;;;;;5019676;28;20045;-54
2020/12/11 06:53:41;;;;;;;50.53;25.55;;;1.40;90.60;;;;;;5028455;28;20129;-54
2020/12/11 06:56:43;;;;;;;57.67;30.42;;;1.40;90.70;;;;;;5006311;28;20081;-55
2020/12/11 06:59:25;;;;;;;48.53;25.93;;;1.50;90.60;;;;;;5012207;28;20054;-55
2020/12/11 07:01:52;;;;;;;49.33;25.58;;;1.40;90.70;;;;;;5017531;28;20394;-55
2020/12/11 07:04:18;;;;;;;48.75;26.50;;;1.40;90.70;;;;;;5000069;28;20549;-55
2020/12/11 07:06:53;;;;;;;50.63;25.77;;;1.40;90.60;;;;;;5031046;28;20095;-55
2020/12/11 07:09:20;;;;;;;44.35;24.33;;;1.40;90.80;;;;;;5011960;28;20398;-56
2020/12/11 07:12:07;;;;;;;45.97;25.67;;;1.40;90.90;;;;;;5000489;28;20049;-56
2020/12/11 07:14:33;;;;;;;45.92;24.20;;;1.40;90.90;;;;;;5017258;28;20050;-53
2020/12/11 07:17:00;;;;;;;45.75;24.60;;;1.40;90.90;;;;;;5017925;28;20076;-53
2020/12/11 07:19:46;;;;;;;49.58;24.88;;;1.40;90.90;;;;;;5008958;28;20038;-53
2020/12/11 07:22:13;;;;;;;46.30;25.65;;;1.50;90.70;;;;;;5000918;28;20199;-55
2020/12/11 07:24:39;;;;;;;48.10;25.77;;;1.50;90.60;;;;;;5015107;28;20055;-56
2020/12/11 07:27:06;;;;;;;42.53;20.80;;;1.50;90.60;;;;;;5019428;28;20049;-56
2020/12/11 07:29:52;;;;;;;50.65;26.55;;;1.60;90.50;;;;;;4982991;28;20124;-56
2020/12/11 07:32:19;;;;;;;48.53;25.73;;;1.50;90.40;;;;;;5018604;28;20686;-56
2020/12/11 07:34:45;;;;;;;45.33;24.63;;;1.50;90.50;;;;;;5022020;28;20079;-56
2020/12/11 07:37:30;;;;;;;46.78;25.77;;;1.50;90.60;;;;;;5000418;28;20053;-55
2020/12/11 07:39:56;;;;;;;46.42;23.92;;;1.50;90.60;;;;;;5014328;28;20449;-55
2020/12/11 07:42:24;;;;;;;49.40;25.80;;;1.50;90.60;;;;;;5013835;28;20038;-54
2020/12/11 07:45:10;;;;;;;47.65;24.98;;;1.50;90.70;;;;;;5006674;28;20094;-56
2020/12/11 07:47:36;;;;;;;45.63;24.88;;;1.40;90.70;;;;;;5025100;28;20087;-54
2020/12/11 07:50:07;;;;;;;46.85;25.30;;;1.90;90.90;;;;;;5019072;28;20409;-54
2020/12/11 07:52:56;;;;;;;49.47;25.00;;;1.50;90.70;;;;;;5008468;28;20129;-54
2020/12/11 07:55:41;;;;;;;42.22;24.38;;;1.40;90.80;;;;;;5006275;28;20046;-54
2020/12/11 07:58:07;;;;;;;44.30;23.42;;;1.40;90.90;;;;;;5016882;28;20037;-55
2020/12/11 08:00:36;;;;;;;45.20;24.85;;;1.40;91.00;;;;;;5014222;28;20171;-54
2020/12/11 08:03:07;;;;;;;48.50;24.65;;;1.40;90.80;;;;;;5009798;28;20037;-54
2020/12/11 08:05:37;;;;;;;45.88;23.65;;;1.40;90.90;;;;;;5016505;28;20034;-52
2020/12/11 08:08:04;;;;;;;46.03;24.15;;;1.40;90.90;;;;;;5019230;28;20116;-54
2020/12/11 08:10:43;;;;;;;41.67;22.30;;;1.40;90.80;;;;;;5025944;28;20091;-53
2020/12/11 08:13:15;;;;;;;48.80;24.88;;;1.40;90.70;;;;;;5014777;28;20103;-54
2020/12/11 08:15:42;;;;;;;45.22;23.65;;;1.50;90.70;;;;;;5011593;28;20139;-53
2020/12/11 08:18:29;;;;;;;43.95;22.80;;;1.40;90.80;;;;;;5011509;28;20034;-54
2020/12/11 08:20:55;;;;;;;43.38;23.65;;;1.50;90.60;;;;;;5020785;28;20113;-54
2020/12/11 08:23:43;;;;;;;46.28;23.30;;;1.50;90.40;;;;;;5003777;28;20510;-55
2020/12/11 08:26:11;;;;;;;45.88;23.85;;;1.50;90.70;;;;;;5013604;28;20105;-55
2020/12/11 08:28:38;;;;;;;44.47;23.67;;;1.50;90.60;;;;;;5012807;28;20088;-50
2020/12/11 08:31:26;;;;;;;45.63;23.02;;;1.50;90.80;;;;;;4996412;28;20049;-55
2020/12/11 08:34:03;;;;;;;44.50;23.20;;;1.50;90.70;;;;;;4992843;28;20046;-51
2020/12/11 08:36:31;;;;;;;44.80;24.13;;;1.60;90.50;;;;;;5024923;28;20375;-52
2020/12/11 08:39:06;;;;;;;43.15;23.42;;;1.50;90.80;;;;;;5021384;28;20045;-50
2020/12/11 08:41:35;;;;;;;46.17;23.70;;;1.60;90.70;;;;;;5020256;28;20057;-53
2020/12/11 08:44:04;;;;;;;42.97;23.92;;;1.60;90.60;;;;;;5025482;28;20046;-50
2020/12/11 08:49:21;;;;;;;46.88;23.08;;;1.60;90.70;;;;;;5024138;28;20042;-53
2020/12/11 08:52:08;;;;;;;42.30;22.65;;;1.60;90.60;;;;;;5008039;28;20041;-53
2020/12/11 08:54:34;;;;;;;42.55;23.45;;;1.60;90.60;;;;;;5021967;28;20042;-51
2020/12/11 08:57:20;;;;;;;43.78;23.77;;;1.70;90.40;;;;;;5012565;28;20108;-55
2020/12/11 08:59:46;;;;;;;40.92;22.35;;;1.70;90.50;;;;;;5027404;28;20045;-54
2020/12/11 09:02:12;;;;;;;43.35;24.60;;;1.80;90.10;;;;;;5018277;28;20037;-54
2020/12/11 09:04:38;;;;;;;46.58;25.17;;;1.80;90.20;;;;;;5028327;28;20033;-52
2020/12/11 09:07:05;;;;;;;41.25;21.73;;;1.70;90.40;;;;;;5021001;28;20414;-55
2020/12/11 09:09:30;;;;;;;40.45;21.65;;;1.90;90.20;;;;;;5017528;28;20124;-55
2020/12/11 09:12:16;;;;;;;39.17;19.88;;;1.90;90.20;;;;;;5009627;28;20131;-55
2020/12/11 09:14:42;;;;;;;41.28;23.17;;;1.90;90.10;;;;;;5011035;28;20767;-55
2020/12/11 09:17:28;;;;;;;39.92;22.08;;;1.90;90.10;;;;;;5000356;28;20046;-55
2020/12/11 09:19:53;;;;;;;41.83;23.20;;;2.00;90.10;;;;;;5016850;28;20038;-55
2020/12/11 09:22:19;;;;;;;39.08;22.02;;;2.00;90.10;;;;;;5016474;28;20575;-55
2020/12/11 09:25:05;;;;;;;39.72;22.02;;;2.00;90.20;;;;;;5001976;28;20518;-52
2020/12/11 09:27:31;;;;;;;39.72;21.02;;;2.00;90.40;;;;;;5019638;28;20479;-56
2020/12/11 09:30:34;;;;;;;37.33;21.08;;;2.00;90.30;;;;;;5004893;28;20103;-54
2020/12/11 09:35:26;;;;;;;39.92;22.38;;;2.10;90.00;;;;;;5016528;28;20042;-54
2020/12/11 09:37:56;;;;;;;38.38;21.95;;;2.10;90.30;;;;;;5014800;28;20034;-52
2020/12/11 09:54:21;;;;;;;35.25;21.08;;;2.40;90.10;;;;;;5013637;28;20085;-50
2020/12/11 09:56:47;;;;;;;35.65;20.70;;;2.30;90.10;;;;;;5017326;28;20053;-53
2020/12/11 09:59:17;;;;;;;35.58;20.27;;;2.50;89.70;;;;;;5013329;28;20494;-53
2020/12/11 10:02:13;;;;;;;38.92;21.17;;;2.50;89.00;;;;;;5003466;28;20052;-52
2020/12/11 10:04:39;;;;;;;35.08;18.70;;;3.20;89.10;;;;;;5017230;28;20068;-52
2020/12/11 10:07:24;;;;;;;35.60;18.98;;;2.70;88.20;;;;;;5005232;28;20120;-53
2020/12/11 10:09:50;;;;;;;34.95;20.02;;;2.70;88.00;;;;;;5030421;28;20462;-54
2020/12/11 10:12:19;;;;;;;37.13;21.00;;;2.80;87.40;;;;;;5019735;28;20161;-53
2020/12/11 10:15:07;;;;;;;34.63;22.05;;;2.80;87.80;;;;;;5004449;28;20041;-52
2020/12/11 10:17:33;;;;;;;41.40;23.08;;;2.80;87.80;;;;;;5029409;28;20045;-51
2020/12/11 10:19:59;;;;;;;36.10;22.55;;;2.80;87.30;;;;;;5016531;28;20045;-54
2020/12/11 10:22:49;;;;;;;42.78;28.70;;;2.90;87.50;;;;;;5004181;28;20052;-52
2020/12/11 10:25:38;;;;;;;32.58;18.77;;;2.90;87.30;;;;;;5014470;28;20085;-51
2020/12/11 10:28:04;;;;;;;35.08;19.77;;;2.90;87.70;;;;;;5019294;28;20042;-51
2020/12/11 10:30:30;;;;;;;39.40;26.38;;;2.90;88.20;;;;;;5011156;28;20056;-54
2020/12/11 10:32:56;;;;;;;30.98;18.52;;;3.80;88.50;;;;;;5025330;28;20034;-52
2020/12/11 10:35:22;;;;;;;34.17;18.58;;;3.00;88.00;;;;;;5020729;28;20047;-51
2020/12/11 10:37:47;;;;;;;31.40;18.83;;;3.00;87.90;;;;;;5019959;28;20061;-51
2020/12/11 10:40:13;;;;;;;32.28;19.08;;;3.10;87.00;;;;;;5020320;28;20069;-51
2020/12/11 10:42:39;;;;;;;32.70;19.00;;;3.20;87.00;;;;;;5023061;28;20100;-53
2020/12/11 10:45:05;;;;;;;36.08;20.27;;;3.20;86.70;;;;;;5016880;28;20475;-52
2020/12/11 10:47:50;;;;;;;36.30;20.95;;;3.20;87.20;;;;;;5005634;28;20038;-55
2020/12/11 10:50:16;;;;;;;33.58;19.83;;;3.20;87.50;;;;;;5027004;28;20047;-51
2020/12/11 10:52:42;;;;;;;31.48;18.23;;;3.30;87.60;;;;;;5017202;28;20034;-52
2020/12/11 10:55:07;;;;;;;28.98;17.13;;;3.50;86.00;;;;;;5004501;28;20034;-52
2020/12/11 10:57:33;;;;;;;29.52;18.50;;;3.50;84.90;;;;;;5019741;28;20088;-52
2020/12/11 11:00:19;;;;;;;29.75;17.40;;;3.50;84.60;;;;;;4999533;28;20530;-52
2020/12/11 11:03:05;;;;;;;28.73;18.13;;;3.50;85.30;;;;;;5005348;28;20049;-54
2020/12/11 11:05:51;;;;;;;31.88;18.52;;;3.50;85.30;;;;;;5004242;28;20054;-54
2020/12/11 11:08:44;;;;;;;30.85;18.65;;;3.40;86.40;;;;;;5002573;28;20442;-55
2020/12/11 11:11:10;;;;;;;31.45;17.48;;;3.50;85.70;;;;;;5021145;28;20053;-54
2020/12/11 11:22:24;;;;;;;30.90;18.08;;;3.60;85.40;;;;;;4997998;28;20088;-55
2020/12/11 11:28:03;;;;;;;32.53;19.58;;;3.60;85.80;;;;;;4998307;28;20060;-53
2020/12/11 11:30:49;;;;;;;31.17;18.73;;;3.70;85.10;;;;;;5003678;28;20053;-54
2020/12/11 11:33:15;;;;;;;28.15;16.65;;;3.70;85.00;;;;;;5012742;28;20056;-53
2020/12/11 11:36:00;;;;;;;30.48;17.50;;;3.80;85.10;;;;;;5003604;28;20073;-52
2020/12/11 11:38:26;;;;;;;28.67;17.27;;;3.80;85.10;;;;;;5017282;28;20065;-56
2020/12/11 11:41:11;;;;;;;28.77;16.83;;;3.90;84.40;;;;;;5006399;28;20092;-53
2020/12/11 11:43:54;;;;;;;29.38;17.63;;;3.90;84.80;;;;;;5022079;28;20045;-50
2020/12/11 11:46:20;;;;;;;29.42;17.63;;;3.90;85.30;;;;;;5015663;28;20046;-52
2020/12/11 11:48:46;;;;;;;28.75;17.42;;;3.90;84.80;;;;;;5018217;28;20029;-53
2020/12/11 11:51:40;;;;;;;30.50;17.98;;;4.00;84.30;;;;;;5000375;28;20425;-53
2020/12/11 11:54:05;;;;;;;29.60;18.27;;;3.90;85.50;;;;;;5015481;28;20045;-54
2020/12/11 11:56:51;;;;;;;29.20;17.08;;;3.90;85.20;;;;;;5014625;28;20049;-50
2020/12/11 11:59:37;;;;;;;29.50;16.60;;;3.90;85.80;;;;;;5000318;28;20084;-52
2020/12/11 12:02:23;;;;;;;31.40;17.75;;;3.90;86.10;;;;;;5012567;28;20521;-53
2020/12/11 12:04:48;;;;;;;29.23;17.80;;;3.90;86.40;;;;;;5026411;28;20180;-55
2020/12/11 12:07:14;;;;;;;31.52;18.15;;;3.90;87.00;;;;;;5013239;28;20497;-54
2020/12/11 12:09:40;;;;;;;28.88;17.40;;;3.80;87.30;;;;;;5019813;28;20037;-54
2020/12/11 12:12:05;;;;;;;36.25;21.75;;;3.80;87.80;;;;;;5014391;28;20038;-54
2020/12/11 12:14:31;;;;;;;49.35;28.50;;;3.80;88.40;;;;;;5020662;28;20048;-53
2020/12/11 12:17:00;;;;;;;32.25;18.55;;;3.90;87.50;;;;;;5012685;28;20033;-54
2020/12/11 12:19:40;;;;;;;29.65;18.20;;;3.80;87.70;;;;;;5019841;28;20044;-53
2020/12/11 12:30:46;;;;;;;29.48;18.35;;;4.00;87.70;;;;;;4991871;28;20042;-53
2020/12/11 12:39:33;;;;;;;27.52;17.20;;;4.10;88.40;;;;;;5000099;28;20046;-53
2020/12/11 12:42:24;;;;;;;28.15;16.88;;;4.10;88.20;;;;;;5010277;28;20050;-54
2020/12/11 12:44:50;;;;;;;32.28;20.30;;;4.10;88.20;;;;;;4999696;28;20528;-53
2020/12/11 12:47:16;;;;;;;28.73;17.58;;;4.10;88.30;;;;;;5026969;28;20124;-52
2020/12/11 12:50:01;;;;;;;29.35;18.52;;;4.10;88.30;;;;;;5005770;28;20038;-50
2020/12/11 12:52:27;;;;;;;30.35;17.63;;;4.20;87.80;;;;;;5025986;28;20107;-51
2020/12/11 12:54:53;;;;;;;27.58;16.80;;;4.20;87.50;;;;;;5026661;28;20030;-51
2020/12/11 12:57:28;;;;;;;29.15;18.00;;;4.20;87.80;;;;;;5021109;28;20068;-51
2020/12/11 13:00:01;;;;;;;27.50;17.40;;;4.20;87.90;;;;;;5004728;28;20038;-54
2020/12/11 13:05:31;;;;;;;31.85;19.33;;;4.20;88.20;;;;;;5021948;28;19922;-52
2020/12/11 13:08:17;;;;;;;28.02;17.15;;;4.20;87.90;;;;;;5008061;28;20429;-52
2020/12/11 13:10:42;;;;;;;30.50;18.05;;;4.30;87.90;;;;;;5017651;28;20042;-51
2020/12/11 13:13:08;;;;;;;27.98;17.88;;;4.30;87.10;;;;;;5016827;28;20041;-51
2020/12/11 13:15:35;;;;;;;30.10;17.77;;;4.40;87.00;;;;;;5015841;28;20034;-50
2020/12/11 13:18:01;;;;;;;31.90;17.83;;;4.30;87.30;;;;;;5016877;28;20260;-50
2020/12/11 13:20:48;;;;;;;31.73;17.25;;;4.30;87.80;;;;;;5002122;28;20483;-50
2020/12/11 13:26:34;;;;;;;26.75;17.65;;;4.30;87.50;;;;;;5020450;28;20418;-50
2020/12/11 13:29:00;;;;;;;35.47;19.65;;;4.30;87.80;;;;;;5027637;28;20041;-50
2020/12/11 13:31:26;;;;;;;28.65;17.10;;;4.40;87.40;;;;;;5023356;28;20049;-54
2020/12/11 13:33:51;;;;;;;28.83;17.38;;;4.40;87.50;;;;;;5028790;28;20045;-52
2020/12/11 13:36:17;;;;;;;27.45;16.75;;;4.30;88.50;;;;;;5019035;28;20081;-51
2020/12/11 13:38:42;;;;;;;29.17;17.10;;;4.40;88.30;;;;;;5032002;28;20045;-50
2020/12/11 13:41:11;;;;;;;29.17;17.88;;;4.30;89.10;;;;;;5020299;28;20513;-51
2020/12/11 13:43:37;;;;;;;28.63;18.08;;;4.30;89.40;;;;;;5022647;28;20505;-51
2020/12/11 13:46:23;;;;;;;28.45;16.30;;;4.20;90.20;;;;;;5007424;28;20046;-52
2020/12/11 13:48:48;;;;;;;28.45;17.63;;;4.30;90.30;;;;;;5021500;28;20498;-51
2020/12/11 13:51:15;;;;;;;28.75;16.85;;;4.30;90.20;;;;;;5017532;28;20064;-50
2020/12/11 13:53:41;;;;;;;26.42;17.27;;;4.30;90.50;;;;;;5017213;28;20037;-54
2020/12/11 13:56:07;;;;;;;25.38;16.83;;;4.30;89.50;;;;;;5018494;28;20038;-54
2020/12/11 13:58:33;;;;;;;26.98;17.38;;;4.30;89.90;;;;;;5023830;28;20442;-53